sensor_id;sensor_type;location;lat;lon;timestamp;P1;durP1;ratioP1;P2;durP2;ratioP2
43114;SDS011;28727;50.068;14.452;2023-12-20T00:00:18;5.80;;;3.55;;
43114;SDS011;28727;50.068;14.452;2023-12-20T00:02:55;6.97;;;3.90;;
43114;SDS011;28727;50.068;14.452;2023-12-20T00:05:27;5.45;;;3.47;;
43114;SDS011;28727;50.068;14.452;2023-12-20T00:07:59;6.13;;;3.47;;
43114;SDS011;28727;50.068;14.452;2023-12-20T00:10:31;5.53;;;3.47;;
43114;SDS011;28727;50.068;14.452;2023-12-20T00:13:02;7.75;;;3.65;;
43114;SDS011;28727;50.068;14.452;2023-12-20T00:15:34;4.95;;;3.40;;
43114;SDS011;28727;50.068;14.452;2023-12-20T00:18:06;5.88;;;3.70;;
43114;SDS011;28727;50.068;14.452;2023-12-20T00:20:39;4.95;;;3.10;;
43114;SDS011;28727;50.068;14.452;2023-12-20T00:23:10;6.35;;;3.97;;
43114;SDS011;28727;50.068;14.452;2023-12-20T00:25:46;6.32;;;4.00;;
43114;SDS011;28727;50.068;14.452;2023-12-20T00:28:21;6.10;;;3.90;;
43114;SDS011;28727;50.068;14.452;2023-12-20T00:30:53;8.93;;;3.95;;
43114;SDS011;28727;50.068;14.452;2023-12-20T00:33:26;5.50;;;3.88;;
43114;SDS011;28727;50.068;14.452;2023-12-20T00:36:01;5.63;;;3.78;;
43114;SDS011;28727;50.068;14.452;2023-12-20T00:38:33;6.20;;;3.83;;
43114;SDS011;28727;50.068;14.452;2023-12-20T00:41:05;6.22;;;3.92;;
43114;SDS011;28727;50.068;14.452;2023-12-20T00:43:37;6.03;;;3.90;;
43114;SDS011;28727;50.068;14.452;2023-12-20T00:46:09;5.70;;;3.95;;
43114;SDS011;28727;50.068;14.452;2023-12-20T00:48:43;5.65;;;3.95;;
43114;SDS011;28727;50.068;14.452;2023-12-20T00:53:50;6.97;;;3.90;;
43114;SDS011;28727;50.068;14.452;2023-12-20T00:56:26;5.78;;;4.20;;
43114;SDS011;28727;50.068;14.452;2023-12-20T00:58:57;5.00;;;3.50;;
43114;SDS011;28727;50.068;14.452;2023-12-20T01:01:29;6.05;;;4.00;;
43114;SDS011;28727;50.068;14.452;2023-12-20T01:04:01;7.15;;;4.30;;
43114;SDS011;28727;50.068;14.452;2023-12-20T01:06:33;7.55;;;4.38;;
43114;SDS011;28727;50.068;14.452;2023-12-20T01:09:05;7.53;;;4.40;;
43114;SDS011;28727;50.068;14.452;2023-12-20T01:11:40;5.38;;;3.88;;
43114;SDS011;28727;50.068;14.452;2023-12-20T01:14:13;6.03;;;4.40;;
43114;SDS011;28727;50.068;14.452;2023-12-20T01:16:45;8.80;;;4.55;;
43114;SDS011;28727;50.068;14.452;2023-12-20T01:19:17;6.07;;;3.72;;
43114;SDS011;28727;50.068;14.452;2023-12-20T01:21:49;6.70;;;4.30;;
43114;SDS011;28727;50.068;14.452;2023-12-20T01:24:21;6.38;;;4.03;;
43114;SDS011;28727;50.068;14.452;2023-12-20T01:26:53;6.90;;;4.50;;
43114;SDS011;28727;50.068;14.452;2023-12-20T01:29:24;6.63;;;4.63;;
43114;SDS011;28727;50.068;14.452;2023-12-20T01:31:57;6.28;;;4.15;;
43114;SDS011;28727;50.068;14.452;2023-12-20T01:34:31;6.70;;;4.78;;
43114;SDS011;28727;50.068;14.452;2023-12-20T01:37:03;7.95;;;4.93;;
43114;SDS011;28727;50.068;14.452;2023-12-20T01:39:35;8.43;;;5.03;;
43114;SDS011;28727;50.068;14.452;2023-12-20T01:42:07;5.82;;;4.30;;
43114;SDS011;28727;50.068;14.452;2023-12-20T01:44:39;6.80;;;5.45;;
43114;SDS011;28727;50.068;14.452;2023-12-20T01:47:14;10.70;;;5.03;;
43114;SDS011;28727;50.068;14.452;2023-12-20T01:49:46;7.85;;;4.68;;
43114;SDS011;28727;50.068;14.452;2023-12-20T01:52:19;10.38;;;5.40;;
43114;SDS011;28727;50.068;14.452;2023-12-20T01:54:57;6.93;;;4.63;;
43114;SDS011;28727;50.068;14.452;2023-12-20T01:57:34;9.88;;;5.38;;
43114;SDS011;28727;50.068;14.452;2023-12-20T02:00:07;8.38;;;5.65;;
43114;SDS011;28727;50.068;14.452;2023-12-20T02:02:40;7.68;;;5.07;;
43114;SDS011;28727;50.068;14.452;2023-12-20T02:05:13;7.25;;;4.80;;
43114;SDS011;28727;50.068;14.452;2023-12-20T02:07:45;8.45;;;5.25;;
43114;SDS011;28727;50.068;14.452;2023-12-20T02:10:17;7.80;;;5.18;;
43114;SDS011;28727;50.068;14.452;2023-12-20T02:12:57;10.20;;;5.63;;
43114;SDS011;28727;50.068;14.452;2023-12-20T02:15:33;7.97;;;5.23;;
43114;SDS011;28727;50.068;14.452;2023-12-20T02:18:05;7.35;;;5.30;;
43114;SDS011;28727;50.068;14.452;2023-12-20T02:20:39;7.55;;;5.63;;
43114;SDS011;28727;50.068;14.452;2023-12-20T02:23:10;8.57;;;5.50;;
43114;SDS011;28727;50.068;14.452;2023-12-20T02:25:42;9.23;;;5.60;;
43114;SDS011;28727;50.068;14.452;2023-12-20T02:28:16;9.30;;;5.78;;
43114;SDS011;28727;50.068;14.452;2023-12-20T02:30:48;8.10;;;5.50;;
43114;SDS011;28727;50.068;14.452;2023-12-20T02:33:21;7.82;;;5.63;;
43114;SDS011;28727;50.068;14.452;2023-12-20T02:35:53;9.10;;;5.82;;
43114;SDS011;28727;50.068;14.452;2023-12-20T02:38:28;8.57;;;5.30;;
43114;SDS011;28727;50.068;14.452;2023-12-20T02:41:00;9.43;;;5.45;;
43114;SDS011;28727;50.068;14.452;2023-12-20T02:43:32;7.45;;;4.95;;
43114;SDS011;28727;50.068;14.452;2023-12-20T02:46:04;7.93;;;5.63;;
43114;SDS011;28727;50.068;14.452;2023-12-20T02:48:35;9.38;;;5.68;;
43114;SDS011;28727;50.068;14.452;2023-12-20T02:53:42;7.85;;;5.68;;
43114;SDS011;28727;50.068;14.452;2023-12-20T02:58:49;8.68;;;6.05;;
43114;SDS011;28727;50.068;14.452;2023-12-20T03:01:20;7.75;;;5.00;;
43114;SDS011;28727;50.068;14.452;2023-12-20T03:03:55;6.90;;;5.50;;
43114;SDS011;28727;50.068;14.452;2023-12-20T03:06:28;10.10;;;5.47;;
43114;SDS011;28727;50.068;14.452;2023-12-20T03:09:03;7.50;;;5.35;;
43114;SDS011;28727;50.068;14.452;2023-12-20T03:11:35;7.75;;;5.35;;
43114;SDS011;28727;50.068;14.452;2023-12-20T03:14:07;7.72;;;4.90;;
43114;SDS011;28727;50.068;14.452;2023-12-20T03:16:40;8.23;;;4.78;;
43114;SDS011;28727;50.068;14.452;2023-12-20T03:19:11;7.72;;;4.90;;
43114;SDS011;28727;50.068;14.452;2023-12-20T03:21:46;8.43;;;5.40;;
43114;SDS011;28727;50.068;14.452;2023-12-20T03:24:18;6.65;;;4.63;;
43114;SDS011;28727;50.068;14.452;2023-12-20T03:26:50;7.78;;;4.88;;
43114;SDS011;28727;50.068;14.452;2023-12-20T03:29:22;6.68;;;4.90;;
43114;SDS011;28727;50.068;14.452;2023-12-20T03:31:55;7.88;;;4.50;;
43114;SDS011;28727;50.068;14.452;2023-12-20T03:34:30;7.70;;;4.80;;
43114;SDS011;28727;50.068;14.452;2023-12-20T03:37:03;5.82;;;4.20;;
43114;SDS011;28727;50.068;14.452;2023-12-20T03:39:35;6.50;;;4.53;;
43114;SDS011;28727;50.068;14.452;2023-12-20T03:42:08;6.03;;;4.20;;
43114;SDS011;28727;50.068;14.452;2023-12-20T03:44:40;7.10;;;4.75;;
43114;SDS011;28727;50.068;14.452;2023-12-20T03:47:11;5.55;;;4.20;;
43114;SDS011;28727;50.068;14.452;2023-12-20T03:49:43;5.93;;;4.32;;
43114;SDS011;28727;50.068;14.452;2023-12-20T03:52:15;6.70;;;5.10;;
43114;SDS011;28727;50.068;14.452;2023-12-20T03:55:10;7.40;;;5.32;;
43114;SDS011;28727;50.068;14.452;2023-12-20T03:57:42;7.25;;;4.28;;
43114;SDS011;28727;50.068;14.452;2023-12-20T04:00:15;5.47;;;3.75;;
43114;SDS011;28727;50.068;14.452;2023-12-20T04:02:47;6.78;;;4.22;;
43114;SDS011;28727;50.068;14.452;2023-12-20T04:05:19;6.05;;;4.00;;
43114;SDS011;28727;50.068;14.452;2023-12-20T04:07:52;5.18;;;3.53;;
43114;SDS011;28727;50.068;14.452;2023-12-20T04:10:27;6.75;;;4.18;;
43114;SDS011;28727;50.068;14.452;2023-12-20T04:12:59;5.68;;;4.00;;
43114;SDS011;28727;50.068;14.452;2023-12-20T04:15:31;5.28;;;3.42;;
43114;SDS011;28727;50.068;14.452;2023-12-20T04:18:03;5.93;;;3.63;;
43114;SDS011;28727;50.068;14.452;2023-12-20T04:20:35;5.03;;;3.30;;
43114;SDS011;28727;50.068;14.452;2023-12-20T04:23:07;5.47;;;3.38;;
43114;SDS011;28727;50.068;14.452;2023-12-20T04:25:39;8.60;;;3.30;;
43114;SDS011;28727;50.068;14.452;2023-12-20T04:28:10;5.30;;;3.10;;
43114;SDS011;28727;50.068;14.452;2023-12-20T04:30:44;4.20;;;3.08;;
43114;SDS011;28727;50.068;14.452;2023-12-20T04:33:16;4.40;;;3.20;;
43114;SDS011;28727;50.068;14.452;2023-12-20T04:35:48;3.88;;;2.80;;
43114;SDS011;28727;50.068;14.452;2023-12-20T04:38:20;4.38;;;2.90;;
43114;SDS011;28727;50.068;14.452;2023-12-20T04:40:52;3.65;;;2.90;;
43114;SDS011;28727;50.068;14.452;2023-12-20T04:43:24;4.30;;;2.92;;
43114;SDS011;28727;50.068;14.452;2023-12-20T04:45:58;4.90;;;2.90;;
43114;SDS011;28727;50.068;14.452;2023-12-20T04:48:30;4.18;;;2.70;;
43114;SDS011;28727;50.068;14.452;2023-12-20T04:51:02;4.35;;;3.10;;
43114;SDS011;28727;50.068;14.452;2023-12-20T04:53:34;4.20;;;2.72;;
43114;SDS011;28727;50.068;14.452;2023-12-20T04:56:10;4.03;;;2.72;;
43114;SDS011;28727;50.068;14.452;2023-12-20T04:58:42;4.13;;;2.78;;
43114;SDS011;28727;50.068;14.452;2023-12-20T05:01:14;7.60;;;3.25;;
43114;SDS011;28727;50.068;14.452;2023-12-20T05:03:47;4.25;;;3.00;;
43114;SDS011;28727;50.068;14.452;2023-12-20T05:06:19;4.35;;;2.97;;
43114;SDS011;28727;50.068;14.452;2023-12-20T05:08:51;4.05;;;3.15;;
43114;SDS011;28727;50.068;14.452;2023-12-20T05:11:22;4.07;;;2.85;;
43114;SDS011;28727;50.068;14.452;2023-12-20T05:13:55;5.00;;;3.40;;
43114;SDS011;28727;50.068;14.452;2023-12-20T05:16:30;5.22;;;3.20;;
43114;SDS011;28727;50.068;14.452;2023-12-20T05:19:02;4.93;;;3.17;;
43114;SDS011;28727;50.068;14.452;2023-12-20T05:21:38;3.90;;;2.97;;
43114;SDS011;28727;50.068;14.452;2023-12-20T05:24:10;6.68;;;3.15;;
43114;SDS011;28727;50.068;14.452;2023-12-20T05:26:42;4.65;;;3.28;;
43114;SDS011;28727;50.068;14.452;2023-12-20T05:29:14;4.78;;;2.95;;
43114;SDS011;28727;50.068;14.452;2023-12-20T05:31:47;6.07;;;2.95;;
43114;SDS011;28727;50.068;14.452;2023-12-20T05:34:21;5.78;;;3.13;;
43114;SDS011;28727;50.068;14.452;2023-12-20T05:36:57;4.95;;;3.30;;
43114;SDS011;28727;50.068;14.452;2023-12-20T05:39:39;4.65;;;3.00;;
43114;SDS011;28727;50.068;14.452;2023-12-20T05:42:11;5.03;;;2.78;;
43114;SDS011;28727;50.068;14.452;2023-12-20T05:44:45;4.28;;;2.80;;
43114;SDS011;28727;50.068;14.452;2023-12-20T05:47:21;5.18;;;3.15;;
43114;SDS011;28727;50.068;14.452;2023-12-20T05:52:25;3.72;;;2.70;;
43114;SDS011;28727;50.068;14.452;2023-12-20T05:54:57;11.75;;;4.15;;
43114;SDS011;28727;50.068;14.452;2023-12-20T05:57:32;4.70;;;3.10;;
43114;SDS011;28727;50.068;14.452;2023-12-20T06:00:07;5.20;;;2.72;;
43114;SDS011;28727;50.068;14.452;2023-12-20T06:02:44;3.80;;;2.90;;
43114;SDS011;28727;50.068;14.452;2023-12-20T06:05:16;6.07;;;2.85;;
43114;SDS011;28727;50.068;14.452;2023-12-20T06:07:47;4.13;;;2.95;;
43114;SDS011;28727;50.068;14.452;2023-12-20T06:10:21;4.88;;;2.90;;
43114;SDS011;28727;50.068;14.452;2023-12-20T06:12:54;4.05;;;2.75;;
43114;SDS011;28727;50.068;14.452;2023-12-20T06:15:26;4.35;;;2.95;;
43114;SDS011;28727;50.068;14.452;2023-12-20T06:18:01;4.10;;;2.50;;
43114;SDS011;28727;50.068;14.452;2023-12-20T06:20:33;3.92;;;2.58;;
43114;SDS011;28727;50.068;14.452;2023-12-20T06:23:05;3.97;;;2.30;;
43114;SDS011;28727;50.068;14.452;2023-12-20T06:25:38;3.92;;;2.45;;
43114;SDS011;28727;50.068;14.452;2023-12-20T06:28:14;3.70;;;2.40;;
43114;SDS011;28727;50.068;14.452;2023-12-20T06:30:46;4.40;;;2.47;;
43114;SDS011;28727;50.068;14.452;2023-12-20T06:33:23;4.78;;;2.33;;
43114;SDS011;28727;50.068;14.452;2023-12-20T06:35:57;3.60;;;2.30;;
43114;SDS011;28727;50.068;14.452;2023-12-20T06:38:30;4.45;;;2.58;;
43114;SDS011;28727;50.068;14.452;2023-12-20T06:41:05;3.97;;;2.60;;
43114;SDS011;28727;50.068;14.452;2023-12-20T06:43:40;3.70;;;2.22;;
43114;SDS011;28727;50.068;14.452;2023-12-20T06:46:20;3.70;;;2.00;;
43114;SDS011;28727;50.068;14.452;2023-12-20T06:48:52;4.25;;;2.10;;
43114;SDS011;28727;50.068;14.452;2023-12-20T06:51:24;5.32;;;2.25;;
43114;SDS011;28727;50.068;14.452;2023-12-20T06:53:57;3.63;;;2.17;;
43114;SDS011;28727;50.068;14.452;2023-12-20T06:56:31;2.97;;;2.08;;
43114;SDS011;28727;50.068;14.452;2023-12-20T06:59:07;5.50;;;2.72;;
43114;SDS011;28727;50.068;14.452;2023-12-20T07:01:41;3.63;;;2.10;;
43114;SDS011;28727;50.068;14.452;2023-12-20T07:04:13;4.78;;;2.08;;
43114;SDS011;28727;50.068;14.452;2023-12-20T07:06:45;3.10;;;1.80;;
43114;SDS011;28727;50.068;14.452;2023-12-20T07:09:20;4.53;;;2.20;;
43114;SDS011;28727;50.068;14.452;2023-12-20T07:11:52;3.13;;;1.80;;
43114;SDS011;28727;50.068;14.452;2023-12-20T07:14:29;3.28;;;2.00;;
43114;SDS011;28727;50.068;14.452;2023-12-20T07:17:05;3.22;;;1.98;;
43114;SDS011;28727;50.068;14.452;2023-12-20T07:19:46;5.70;;;2.10;;
43114;SDS011;28727;50.068;14.452;2023-12-20T07:22:18;3.22;;;2.10;;
43114;SDS011;28727;50.068;14.452;2023-12-20T07:24:50;3.05;;;2.10;;
43114;SDS011;28727;50.068;14.452;2023-12-20T07:27:28;2.65;;;2.10;;
43114;SDS011;28727;50.068;14.452;2023-12-20T07:30:00;2.47;;;1.60;;
43114;SDS011;28727;50.068;14.452;2023-12-20T07:32:32;4.05;;;2.00;;
43114;SDS011;28727;50.068;14.452;2023-12-20T07:35:04;4.60;;;2.35;;
43114;SDS011;28727;50.068;14.452;2023-12-20T07:37:37;2.92;;;1.80;;
43114;SDS011;28727;50.068;14.452;2023-12-20T07:40:10;2.47;;;1.70;;
43114;SDS011;28727;50.068;14.452;2023-12-20T07:42:42;2.58;;;1.85;;
43114;SDS011;28727;50.068;14.452;2023-12-20T07:45:14;3.05;;;1.80;;
43114;SDS011;28727;50.068;14.452;2023-12-20T07:47:48;2.47;;;1.65;;
43114;SDS011;28727;50.068;14.452;2023-12-20T07:50:22;2.60;;;1.60;;
43114;SDS011;28727;50.068;14.452;2023-12-20T07:52:53;2.75;;;1.70;;
43114;SDS011;28727;50.068;14.452;2023-12-20T07:55:25;2.67;;;1.65;;
43114;SDS011;28727;50.068;14.452;2023-12-20T07:57:58;4.82;;;2.45;;
43114;SDS011;28727;50.068;14.452;2023-12-20T08:00:30;3.92;;;1.67;;
43114;SDS011;28727;50.068;14.452;2023-12-20T08:03:02;3.20;;;1.65;;
43114;SDS011;28727;50.068;14.452;2023-12-20T08:05:41;3.00;;;1.60;;
43114;SDS011;28727;50.068;14.452;2023-12-20T08:08:13;5.10;;;1.73;;
43114;SDS011;28727;50.068;14.452;2023-12-20T08:10:45;2.25;;;1.50;;
43114;SDS011;28727;50.068;14.452;2023-12-20T08:13:17;2.58;;;1.52;;
43114;SDS011;28727;50.068;14.452;2023-12-20T08:15:53;2.95;;;1.70;;
43114;SDS011;28727;50.068;14.452;2023-12-20T08:18:25;3.97;;;1.60;;
43114;SDS011;28727;50.068;14.452;2023-12-20T08:20:57;3.92;;;1.75;;
43114;SDS011;28727;50.068;14.452;2023-12-20T08:23:29;3.60;;;1.48;;
43114;SDS011;28727;50.068;14.452;2023-12-20T08:26:07;2.45;;;1.42;;
43114;SDS011;28727;50.068;14.452;2023-12-20T08:28:39;2.40;;;1.50;;
43114;SDS011;28727;50.068;14.452;2023-12-20T08:31:14;2.67;;;1.50;;
43114;SDS011;28727;50.068;14.452;2023-12-20T08:33:48;2.25;;;1.50;;
43114;SDS011;28727;50.068;14.452;2023-12-20T08:36:21;2.22;;;1.33;;
43114;SDS011;28727;50.068;14.452;2023-12-20T08:38:54;2.13;;;1.45;;
43114;SDS011;28727;50.068;14.452;2023-12-20T08:41:26;3.33;;;1.42;;
43114;SDS011;28727;50.068;14.452;2023-12-20T08:43:58;3.05;;;1.85;;
43114;SDS011;28727;50.068;14.452;2023-12-20T08:46:30;2.50;;;1.50;;
43114;SDS011;28727;50.068;14.452;2023-12-20T08:49:02;2.65;;;1.42;;
43114;SDS011;28727;50.068;14.452;2023-12-20T08:51:35;2.47;;;1.52;;
43114;SDS011;28727;50.068;14.452;2023-12-20T08:54:12;3.28;;;1.50;;
43114;SDS011;28727;50.068;14.452;2023-12-20T08:56:49;2.25;;;1.20;;
43114;SDS011;28727;50.068;14.452;2023-12-20T08:59:21;2.63;;;1.48;;
43114;SDS011;28727;50.068;14.452;2023-12-20T09:01:53;2.90;;;1.60;;
43114;SDS011;28727;50.068;14.452;2023-12-20T09:04:26;2.30;;;1.30;;
43114;SDS011;28727;50.068;14.452;2023-12-20T09:06:59;2.05;;;1.40;;
43114;SDS011;28727;50.068;14.452;2023-12-20T09:09:31;3.38;;;1.48;;
43114;SDS011;28727;50.068;14.452;2023-12-20T09:12:03;2.47;;;1.30;;
43114;SDS011;28727;50.068;14.452;2023-12-20T09:14:38;3.00;;;1.40;;
43114;SDS011;28727;50.068;14.452;2023-12-20T09:17:10;3.78;;;1.30;;
43114;SDS011;28727;50.068;14.452;2023-12-20T09:19:43;2.10;;;1.20;;
43114;SDS011;28727;50.068;14.452;2023-12-20T09:22:22;2.30;;;1.30;;
43114;SDS011;28727;50.068;14.452;2023-12-20T09:24:54;1.98;;;1.20;;
43114;SDS011;28727;50.068;14.452;2023-12-20T09:27:26;2.97;;;1.42;;
43114;SDS011;28727;50.068;14.452;2023-12-20T09:29:58;1.42;;;1.08;;
43114;SDS011;28727;50.068;14.452;2023-12-20T09:32:30;2.10;;;1.20;;
43114;SDS011;28727;50.068;14.452;2023-12-20T09:35:02;1.40;;;1.00;;
43114;SDS011;28727;50.068;14.452;2023-12-20T09:37:37;2.17;;;1.20;;
43114;SDS011;28727;50.068;14.452;2023-12-20T09:40:08;2.65;;;1.30;;
43114;SDS011;28727;50.068;14.452;2023-12-20T09:45:27;1.55;;;1.15;;
43114;SDS011;28727;50.068;14.452;2023-12-20T09:48:01;1.80;;;1.30;;
43114;SDS011;28727;50.068;14.452;2023-12-20T09:50:40;2.22;;;1.48;;
43114;SDS011;28727;50.068;14.452;2023-12-20T09:53:22;2.45;;;1.38;;
43114;SDS011;28727;50.068;14.452;2023-12-20T09:56:00;2.42;;;1.40;;
43114;SDS011;28727;50.068;14.452;2023-12-20T09:58:36;2.55;;;1.45;;
43114;SDS011;28727;50.068;14.452;2023-12-20T10:01:09;1.60;;;1.00;;
43114;SDS011;28727;50.068;14.452;2023-12-20T10:03:45;2.78;;;1.35;;
43114;SDS011;28727;50.068;14.452;2023-12-20T10:06:19;2.65;;;1.10;;
43114;SDS011;28727;50.068;14.452;2023-12-20T10:08:51;2.08;;;1.00;;
43114;SDS011;28727;50.068;14.452;2023-12-20T10:11:24;1.50;;;0.95;;
43114;SDS011;28727;50.068;14.452;2023-12-20T10:13:59;1.98;;;1.23;;
43114;SDS011;28727;50.068;14.452;2023-12-20T10:16:36;1.67;;;1.08;;
43114;SDS011;28727;50.068;14.452;2023-12-20T10:19:09;2.85;;;1.20;;
43114;SDS011;28727;50.068;14.452;2023-12-20T10:21:41;3.20;;;1.27;;
43114;SDS011;28727;50.068;14.452;2023-12-20T10:24:19;2.22;;;0.90;;
43114;SDS011;28727;50.068;14.452;2023-12-20T10:27:06;3.00;;;1.20;;
43114;SDS011;28727;50.068;14.452;2023-12-20T10:29:39;2.40;;;1.20;;
43114;SDS011;28727;50.068;14.452;2023-12-20T10:32:30;2.00;;;1.08;;
43114;SDS011;28727;50.068;14.452;2023-12-20T10:35:04;1.50;;;0.90;;
43114;SDS011;28727;50.068;14.452;2023-12-20T10:37:39;1.73;;;0.98;;
43114;SDS011;28727;50.068;14.452;2023-12-20T10:40:11;1.67;;;1.13;;
43114;SDS011;28727;50.068;14.452;2023-12-20T10:42:45;1.53;;;1.07;;
43114;SDS011;28727;50.068;14.452;2023-12-20T10:45:18;2.70;;;1.00;;
43114;SDS011;28727;50.068;14.452;2023-12-20T10:47:50;1.67;;;1.00;;
43114;SDS011;28727;50.068;14.452;2023-12-20T10:50:22;27.10;;;3.22;;
43114;SDS011;28727;50.068;14.452;2023-12-20T10:53:01;3.13;;;1.08;;
43114;SDS011;28727;50.068;14.452;2023-12-20T10:55:34;1.88;;;1.00;;
43114;SDS011;28727;50.068;14.452;2023-12-20T10:58:09;1.92;;;1.23;;
43114;SDS011;28727;50.068;14.452;2023-12-20T11:00:42;2.13;;;1.30;;
43114;SDS011;28727;50.068;14.452;2023-12-20T11:03:17;7.78;;;1.77;;
43114;SDS011;28727;50.068;14.452;2023-12-20T11:05:52;1.80;;;1.20;;
43114;SDS011;28727;50.068;14.452;2023-12-20T11:08:44;5.55;;;2.00;;
43114;SDS011;28727;50.068;14.452;2023-12-20T11:17:13;5.18;;;1.80;;
43114;SDS011;28727;50.068;14.452;2023-12-20T11:22:33;10.45;;;2.20;;
43114;SDS011;28727;50.068;14.452;2023-12-20T11:25:12;7.22;;;2.20;;
43114;SDS011;28727;50.068;14.452;2023-12-20T11:27:44;2.38;;;1.58;;
43114;SDS011;28727;50.068;14.452;2023-12-20T11:30:42;3.22;;;1.60;;
43114;SDS011;28727;50.068;14.452;2023-12-20T11:33:21;2.05;;;1.38;;
43114;SDS011;28727;50.068;14.452;2023-12-20T11:36:00;3.33;;;1.38;;
43114;SDS011;28727;50.068;14.452;2023-12-20T11:38:36;2.33;;;1.27;;
43114;SDS011;28727;50.068;14.452;2023-12-20T11:41:12;3.70;;;1.40;;
43114;SDS011;28727;50.068;14.452;2023-12-20T11:43:46;3.20;;;1.23;;
43114;SDS011;28727;50.068;14.452;2023-12-20T11:46:18;5.45;;;1.52;;
43114;SDS011;28727;50.068;14.452;2023-12-20T11:48:54;2.70;;;1.30;;
43114;SDS011;28727;50.068;14.452;2023-12-20T11:51:27;3.13;;;1.20;;
43114;SDS011;28727;50.068;14.452;2023-12-20T11:53:59;1.90;;;1.17;;
43114;SDS011;28727;50.068;14.452;2023-12-20T11:56:31;1.88;;;1.40;;
43114;SDS011;28727;50.068;14.452;2023-12-20T11:59:03;2.20;;;1.10;;
43114;SDS011;28727;50.068;14.452;2023-12-20T12:01:54;1.58;;;1.10;;
43114;SDS011;28727;50.068;14.452;2023-12-20T12:04:34;1.60;;;1.15;;
43114;SDS011;28727;50.068;14.452;2023-12-20T12:07:06;2.08;;;1.15;;
43114;SDS011;28727;50.068;14.452;2023-12-20T12:09:43;1.77;;;0.90;;
43114;SDS011;28727;50.068;14.452;2023-12-20T12:12:16;2.15;;;1.20;;
43114;SDS011;28727;50.068;14.452;2023-12-20T12:14:49;2.17;;;1.33;;
43114;SDS011;28727;50.068;14.452;2023-12-20T12:17:21;2.75;;;1.33;;
43114;SDS011;28727;50.068;14.452;2023-12-20T12:20:05;2.28;;;1.20;;
43114;SDS011;28727;50.068;14.452;2023-12-20T12:22:38;2.30;;;1.27;;
43114;SDS011;28727;50.068;14.452;2023-12-20T12:25:13;1.67;;;1.10;;
43114;SDS011;28727;50.068;14.452;2023-12-20T12:27:45;3.95;;;1.67;;
43114;SDS011;28727;50.068;14.452;2023-12-20T12:30:20;3.97;;;1.67;;
43114;SDS011;28727;50.068;14.452;2023-12-20T12:32:52;3.35;;;1.52;;
43114;SDS011;28727;50.068;14.452;2023-12-20T12:35:28;2.60;;;1.40;;
43114;SDS011;28727;50.068;14.452;2023-12-20T12:38:03;3.58;;;1.30;;
43114;SDS011;28727;50.068;14.452;2023-12-20T12:40:35;3.67;;;1.50;;
43114;SDS011;28727;50.068;14.452;2023-12-20T12:43:09;2.95;;;1.40;;
43114;SDS011;28727;50.068;14.452;2023-12-20T12:45:41;3.47;;;1.60;;
43114;SDS011;28727;50.068;14.452;2023-12-20T12:48:15;3.50;;;1.60;;
43114;SDS011;28727;50.068;14.452;2023-12-20T12:50:47;4.25;;;1.88;;
43114;SDS011;28727;50.068;14.452;2023-12-20T12:53:19;3.38;;;1.38;;
43114;SDS011;28727;50.068;14.452;2023-12-20T12:55:50;3.10;;;1.50;;
43114;SDS011;28727;50.068;14.452;2023-12-20T12:58:22;5.38;;;1.80;;
43114;SDS011;28727;50.068;14.452;2023-12-20T13:00:56;5.25;;;1.88;;
43114;SDS011;28727;50.068;14.452;2023-12-20T13:03:29;6.05;;;1.88;;
43114;SDS011;28727;50.068;14.452;2023-12-20T13:06:03;3.75;;;1.60;;
43114;SDS011;28727;50.068;14.452;2023-12-20T13:08:37;6.38;;;1.90;;
43114;SDS011;28727;50.068;14.452;2023-12-20T13:11:09;10.13;;;2.58;;
43114;SDS011;28727;50.068;14.452;2023-12-20T13:13:41;3.83;;;1.58;;
43114;SDS011;28727;50.068;14.452;2023-12-20T13:16:12;2.85;;;1.88;;
43114;SDS011;28727;50.068;14.452;2023-12-20T13:18:57;3.60;;;2.00;;
43114;SDS011;28727;50.068;14.452;2023-12-20T13:21:31;4.88;;;1.85;;
43114;SDS011;28727;50.068;14.452;2023-12-20T13:24:04;3.13;;;1.33;;
43114;SDS011;28727;50.068;14.452;2023-12-20T13:26:36;5.25;;;1.52;;
43114;SDS011;28727;50.068;14.452;2023-12-20T13:29:09;3.40;;;1.50;;
43114;SDS011;28727;50.068;14.452;2023-12-20T13:31:41;6.15;;;1.65;;
43114;SDS011;28727;50.068;14.452;2023-12-20T13:34:13;5.60;;;1.30;;
43114;SDS011;28727;50.068;14.452;2023-12-20T13:36:49;5.20;;;1.48;;
43114;SDS011;28727;50.068;14.452;2023-12-20T13:39:23;2.15;;;1.20;;
43114;SDS011;28727;50.068;14.452;2023-12-20T13:41:55;6.22;;;1.50;;
43114;SDS011;28727;50.068;14.452;2023-12-20T13:44:30;3.60;;;2.03;;
43114;SDS011;28727;50.068;14.452;2023-12-20T13:47:02;3.88;;;1.30;;
43114;SDS011;28727;50.068;14.452;2023-12-20T13:49:34;4.47;;;1.40;;
43114;SDS011;28727;50.068;14.452;2023-12-20T13:52:07;4.80;;;1.40;;
43114;SDS011;28727;50.068;14.452;2023-12-20T13:54:42;6.82;;;1.30;;
43114;SDS011;28727;50.068;14.452;2023-12-20T13:57:14;2.90;;;1.23;;
43114;SDS011;28727;50.068;14.452;2023-12-20T14:00:08;2.75;;;1.50;;
43114;SDS011;28727;50.068;14.452;2023-12-20T14:02:48;4.70;;;1.30;;
43114;SDS011;28727;50.068;14.452;2023-12-20T14:05:21;4.32;;;1.20;;
43114;SDS011;28727;50.068;14.452;2023-12-20T14:07:59;2.65;;;1.30;;
43114;SDS011;28727;50.068;14.452;2023-12-20T14:10:34;3.00;;;1.45;;
43114;SDS011;28727;50.068;14.452;2023-12-20T14:13:08;3.45;;;1.30;;
43114;SDS011;28727;50.068;14.452;2023-12-20T14:15:39;2.42;;;1.20;;
43114;SDS011;28727;50.068;14.452;2023-12-20T14:18:12;6.47;;;1.40;;
43114;SDS011;28727;50.068;14.452;2023-12-20T14:20:47;6.32;;;1.45;;
43114;SDS011;28727;50.068;14.452;2023-12-20T14:23:19;2.20;;;1.30;;
43114;SDS011;28727;50.068;14.452;2023-12-20T14:25:51;3.80;;;1.40;;
43114;SDS011;28727;50.068;14.452;2023-12-20T14:28:26;3.05;;;1.30;;
43114;SDS011;28727;50.068;14.452;2023-12-20T14:30:58;2.83;;;1.30;;
43114;SDS011;28727;50.068;14.452;2023-12-20T14:33:30;2.83;;;1.58;;
43114;SDS011;28727;50.068;14.452;2023-12-20T14:36:03;5.78;;;3.10;;
43114;SDS011;28727;50.068;14.452;2023-12-20T14:38:39;2.47;;;1.10;;
43114;SDS011;28727;50.068;14.452;2023-12-20T14:41:11;2.03;;;1.30;;
43114;SDS011;28727;50.068;14.452;2023-12-20T14:43:43;3.70;;;1.30;;
43114;SDS011;28727;50.068;14.452;2023-12-20T14:46:15;2.90;;;1.27;;
43114;SDS011;28727;50.068;14.452;2023-12-20T14:48:49;2.85;;;1.10;;
43114;SDS011;28727;50.068;14.452;2023-12-20T14:51:21;2.35;;;1.13;;
43114;SDS011;28727;50.068;14.452;2023-12-20T14:53:53;1.75;;;1.20;;
43114;SDS011;28727;50.068;14.452;2023-12-20T14:56:24;2.72;;;1.30;;
43114;SDS011;28727;50.068;14.452;2023-12-20T14:58:57;1.80;;;1.40;;
43114;SDS011;28727;50.068;14.452;2023-12-20T15:01:33;1.67;;;1.08;;
43114;SDS011;28727;50.068;14.452;2023-12-20T15:04:05;2.88;;;1.40;;
43114;SDS011;28727;50.068;14.452;2023-12-20T15:06:37;3.60;;;1.27;;
43114;SDS011;28727;50.068;14.452;2023-12-20T15:09:12;2.90;;;1.20;;
43114;SDS011;28727;50.068;14.452;2023-12-20T15:11:44;4.32;;;1.25;;
43114;SDS011;28727;50.068;14.452;2023-12-20T15:14:16;3.00;;;1.33;;
43114;SDS011;28727;50.068;14.452;2023-12-20T15:16:51;4.38;;;1.20;;
43114;SDS011;28727;50.068;14.452;2023-12-20T15:19:23;2.50;;;1.50;;
43114;SDS011;28727;50.068;14.452;2023-12-20T15:21:55;2.80;;;1.42;;
43114;SDS011;28727;50.068;14.452;2023-12-20T15:24:30;4.88;;;1.60;;
43114;SDS011;28727;50.068;14.452;2023-12-20T15:27:12;3.22;;;1.40;;
43114;SDS011;28727;50.068;14.452;2023-12-20T15:29:47;2.50;;;1.10;;
43114;SDS011;28727;50.068;14.452;2023-12-20T15:32:21;3.03;;;1.42;;